KPHF/PHF METAR and TAF weather

Enter ICAO airport designator
Station Type Date Time Source
KPHF METAR 2020/09/25 18:54 UTC NOAA

KPHF 251854Z 09005KT 7SM -RA SCT090 OVC110 21/16 A3011 RMK AO2 RAB1758 SLP197 P0001 T02110156


Station Type Date Time Source
KPHF Decoded METAR 2020/09/25 18:54 UTC NOAA

WILLIAMSBURG INTERNATIONAL AIRPORT , VA, United States (KPHF) 37-08N 76-30W 12M
Sep 25, 2020 - 02:54 PM EDT / 2020.09.25 1854 UTC
Wind: from the E (090 degrees) at 6 MPH (5 KT):0
Visibility: 7 mile(s):0
Sky conditions: overcast
Weather: light rain
Precipitation last hour: 0.01 inches
Temperature: 70.0 F (21.1 C)
Dew Point: 60.1 F (15.6 C)
Relative Humidity: 70%
Pressure (altimeter): 30.11 in. Hg (1019 hPa)
ob: KPHF 251854Z 09005KT 7SM -RA SCT090 OVC110 21/16 A3011 RMK AO2 RAB1758 SLP197 P0001 T02110156
cycle: 19

Station Type Date Time Source
KPHF TAF 2020/09/25 18:30 UTC NOAA

TAF KPHF 251726Z 2518/2618 13005KT 6SM -SHRA OVC050
FM252200 09007KT 6SM -SHRA OVC030
FM260200 13005KT P6SM -SHRA OVC015
FM260800 VRB03KT P6SM OVC008
FM261600 14007KT P6SM BKN015

Example: see airport list